sensor_id;sensor_type;location;lat;lon;timestamp;temperature;humidity
7784;DHT22;19359;51.402;6.778;2022-11-20T00:00:37;-0.90;1.00
7784;DHT22;19359;51.402;6.778;2022-11-20T00:03:04;-0.90;1.00
7784;DHT22;19359;51.402;6.778;2022-11-20T00:05:33;-0.90;1.00
7784;DHT22;19359;51.402;6.778;2022-11-20T00:08:00;-0.90;1.00
7784;DHT22;19359;51.402;6.778;2022-11-20T00:10:27;-1.00;1.00
7784;DHT22;19359;51.402;6.778;2022-11-20T00:12:53;-1.00;1.00
7784;DHT22;19359;51.402;6.778;2022-11-20T00:15:20;-1.00;1.00
7784;DHT22;19359;51.402;6.778;2022-11-20T00:17:47;-1.00;1.00
7784;DHT22;19359;51.402;6.778;2022-11-20T00:20:14;-1.00;1.00
7784;DHT22;19359;51.402;6.778;2022-11-20T00:22:42;-1.00;1.00
7784;DHT22;19359;51.402;6.778;2022-11-20T00:25:09;-1.00;1.00
7784;DHT22;19359;51.402;6.778;2022-11-20T00:27:36;-1.00;1.00
7784;DHT22;19359;51.402;6.778;2022-11-20T00:30:04;-1.00;1.00
7784;DHT22;19359;51.402;6.778;2022-11-20T00:32:31;-1.00;1.00
7784;DHT22;19359;51.402;6.778;2022-11-20T00:34:57;-0.90;1.00
7784;DHT22;19359;51.402;6.778;2022-11-20T00:37:24;-0.90;1.00
7784;DHT22;19359;51.402;6.778;2022-11-20T00:39:52;-0.80;1.00
7784;DHT22;19359;51.402;6.778;2022-11-20T00:42:19;-0.70;1.00
7784;DHT22;19359;51.402;6.778;2022-11-20T00:44:46;-0.70;1.00
7784;DHT22;19359;51.402;6.778;2022-11-20T00:47:12;-0.70;1.00
7784;DHT22;19359;51.402;6.778;2022-11-20T00:49:39;-0.60;1.00
7784;DHT22;19359;51.402;6.778;2022-11-20T00:52:06;-0.50;1.00
7784;DHT22;19359;51.402;6.778;2022-11-20T00:54:32;-0.50;1.00
7784;DHT22;19359;51.402;6.778;2022-11-20T00:57:00;-0.40;1.00
7784;DHT22;19359;51.402;6.778;2022-11-20T00:59:27;-0.30;1.00
7784;DHT22;19359;51.402;6.778;2022-11-20T01:01:54;-0.20;1.00
7784;DHT22;19359;51.402;6.778;2022-11-20T01:04:21;-0.10;1.00
7784;DHT22;19359;51.402;6.778;2022-11-20T01:06:47;-0.10;1.00
7784;DHT22;19359;51.402;6.778;2022-11-20T01:09:14;0.00;1.00
7784;DHT22;19359;51.402;6.778;2022-11-20T01:11:43;-0.10;1.00
7784;DHT22;19359;51.402;6.778;2022-11-20T01:14:14;-0.10;1.00
7784;DHT22;19359;51.402;6.778;2022-11-20T01:16:43;-0.10;1.00
7784;DHT22;19359;51.402;6.778;2022-11-20T01:19:13;-0.10;1.00
7784;DHT22;19359;51.402;6.778;2022-11-20T01:21:42;-0.10;1.00
7784;DHT22;19359;51.402;6.778;2022-11-20T01:24:11;-0.10;1.00
7784;DHT22;19359;51.402;6.778;2022-11-20T01:26:40;-0.10;1.00
7784;DHT22;19359;51.402;6.778;2022-11-20T01:29:13;0.00;1.00
7784;DHT22;19359;51.402;6.778;2022-11-20T01:31:40;0.00;1.00
7784;DHT22;19359;51.402;6.778;2022-11-20T01:34:10;0.10;1.00
7784;DHT22;19359;51.402;6.778;2022-11-20T01:36:38;0.20;1.00
7784;DHT22;19359;51.402;6.778;2022-11-20T01:39:07;0.20;1.00
7784;DHT22;19359;51.402;6.778;2022-11-20T01:41:34;0.20;1.00
7784;DHT22;19359;51.402;6.778;2022-11-20T01:44:21;0.30;1.00
7784;DHT22;19359;51.402;6.778;2022-11-20T01:46:54;0.30;1.00
7784;DHT22;19359;51.402;6.778;2022-11-20T01:49:27;0.30;1.00
7784;DHT22;19359;51.402;6.778;2022-11-20T01:51:56;0.40;1.00
7784;DHT22;19359;51.402;6.778;2022-11-20T01:54:30;0.50;1.00
7784;DHT22;19359;51.402;6.778;2022-11-20T01:56:59;0.50;1.00
7784;DHT22;19359;51.402;6.778;2022-11-20T01:59:28;0.60;1.00
7784;DHT22;19359;51.402;6.778;2022-11-20T02:01:56;0.60;1.00
7784;DHT22;19359;51.402;6.778;2022-11-20T02:04:23;0.60;1.00
7784;DHT22;19359;51.402;6.778;2022-11-20T02:06:55;0.80;1.00
7784;DHT22;19359;51.402;6.778;2022-11-20T02:09:23;0.90;1.00
7784;DHT22;19359;51.402;6.778;2022-11-20T02:11:50;0.80;1.00
7784;DHT22;19359;51.402;6.778;2022-11-20T02:14:17;0.80;1.00
7784;DHT22;19359;51.402;6.778;2022-11-20T02:16:46;0.80;1.00
7784;DHT22;19359;51.402;6.778;2022-11-20T02:19:16;0.80;1.00
7784;DHT22;19359;51.402;6.778;2022-11-20T02:21:50;0.80;1.00
7784;DHT22;19359;51.402;6.778;2022-11-20T02:24:22;0.90;1.00
7784;DHT22;19359;51.402;6.778;2022-11-20T02:26:52;0.80;1.00
7784;DHT22;19359;51.402;6.778;2022-11-20T02:29:25;0.80;1.00
7784;DHT22;19359;51.402;6.778;2022-11-20T02:31:54;0.80;1.00
7784;DHT22;19359;51.402;6.778;2022-11-20T02:34:21;0.80;1.00
7784;DHT22;19359;51.402;6.778;2022-11-20T02:36:49;1.70;1.00
7784;DHT22;19359;51.402;6.778;2022-11-20T02:39:17;0.80;1.00
7784;DHT22;19359;51.402;6.778;2022-11-20T02:41:46;0.80;1.00
7784;DHT22;19359;51.402;6.778;2022-11-20T02:44:13;0.80;1.00
7784;DHT22;19359;51.402;6.778;2022-11-20T02:46:40;0.90;1.00
7784;DHT22;19359;51.402;6.778;2022-11-20T02:49:07;1.00;1.00
7784;DHT22;19359;51.402;6.778;2022-11-20T02:51:33;1.00;1.00
7784;DHT22;19359;51.402;6.778;2022-11-20T02:54:00;1.00;1.00
7784;DHT22;19359;51.402;6.778;2022-11-20T02:56:27;1.00;1.00
7784;DHT22;19359;51.402;6.778;2022-11-20T02:58:55;1.00;1.00
7784;DHT22;19359;51.402;6.778;2022-11-20T03:01:22;1.00;1.00
7784;DHT22;19359;51.402;6.778;2022-11-20T03:03:49;1.10;1.00
7784;DHT22;19359;51.402;6.778;2022-11-20T03:06:16;1.10;1.00
7784;DHT22;19359;51.402;6.778;2022-11-20T03:08:43;1.20;1.00
7784;DHT22;19359;51.402;6.778;2022-11-20T03:11:10;1.20;1.00
7784;DHT22;19359;51.402;6.778;2022-11-20T03:13:37;1.20;1.00
7784;DHT22;19359;51.402;6.778;2022-11-20T03:16:10;1.30;1.00
7784;DHT22;19359;51.402;6.778;2022-11-20T03:18:38;1.20;1.00
7784;DHT22;19359;51.402;6.778;2022-11-20T03:21:05;1.20;1.00
7784;DHT22;19359;51.402;6.778;2022-11-20T03:23:32;1.30;1.00
7784;DHT22;19359;51.402;6.778;2022-11-20T03:26:10;1.30;1.00
7784;DHT22;19359;51.402;6.778;2022-11-20T03:28:37;1.20;1.00
7784;DHT22;19359;51.402;6.778;2022-11-20T03:31:07;1.40;1.00
7784;DHT22;19359;51.402;6.778;2022-11-20T03:33:34;1.30;1.00
7784;DHT22;19359;51.402;6.778;2022-11-20T03:36:02;1.30;1.00
7784;DHT22;19359;51.402;6.778;2022-11-20T03:38:29;1.20;1.00
7784;DHT22;19359;51.402;6.778;2022-11-20T03:40:59;1.20;1.00
7784;DHT22;19359;51.402;6.778;2022-11-20T03:43:26;1.20;1.00
7784;DHT22;19359;51.402;6.778;2022-11-20T03:45:53;1.20;1.00
7784;DHT22;19359;51.402;6.778;2022-11-20T03:48:21;1.30;1.00
7784;DHT22;19359;51.402;6.778;2022-11-20T03:50:48;1.30;1.00
7784;DHT22;19359;51.402;6.778;2022-11-20T03:53:15;1.40;1.00
7784;DHT22;19359;51.402;6.778;2022-11-20T03:55:42;1.40;1.00
7784;DHT22;19359;51.402;6.778;2022-11-20T03:58:09;1.40;1.00
7784;DHT22;19359;51.402;6.778;2022-11-20T04:00:36;1.50;1.00
7784;DHT22;19359;51.402;6.778;2022-11-20T04:03:03;1.40;1.00
7784;DHT22;19359;51.402;6.778;2022-11-20T04:05:33;1.40;1.00
7784;DHT22;19359;51.402;6.778;2022-11-20T04:07:59;1.50;1.00
7784;DHT22;19359;51.402;6.778;2022-11-20T04:10:26;1.50;1.00
7784;DHT22;19359;51.402;6.778;2022-11-20T04:12:53;1.50;1.00
7784;DHT22;19359;51.402;6.778;2022-11-20T04:15:20;1.60;1.00
7784;DHT22;19359;51.402;6.778;2022-11-20T04:17:46;1.70;1.00
7784;DHT22;19359;51.402;6.778;2022-11-20T04:20:13;1.60;1.00
7784;DHT22;19359;51.402;6.778;2022-11-20T04:22:41;1.70;1.00
7784;DHT22;19359;51.402;6.778;2022-11-20T04:25:08;1.70;1.00
7784;DHT22;19359;51.402;6.778;2022-11-20T04:30:02;1.90;1.00
7784;DHT22;19359;51.402;6.778;2022-11-20T04:32:29;1.70;1.00
7784;DHT22;19359;51.402;6.778;2022-11-20T04:34:56;1.70;1.00
7784;DHT22;19359;51.402;6.778;2022-11-20T04:37:22;1.70;1.00
7784;DHT22;19359;51.402;6.778;2022-11-20T04:39:51;1.70;1.00
7784;DHT22;19359;51.402;6.778;2022-11-20T04:42:17;1.80;1.00
7784;DHT22;19359;51.402;6.778;2022-11-20T04:44:56;1.90;1.00
7784;DHT22;19359;51.402;6.778;2022-11-20T04:47:23;1.80;1.00
7784;DHT22;19359;51.402;6.778;2022-11-20T04:49:50;1.70;1.00
7784;DHT22;19359;51.402;6.778;2022-11-20T04:52:17;1.70;1.00
7784;DHT22;19359;51.402;6.778;2022-11-20T04:54:44;1.80;1.00
7784;DHT22;19359;51.402;6.778;2022-11-20T04:57:14;1.80;1.00
7784;DHT22;19359;51.402;6.778;2022-11-20T04:59:41;1.80;1.00
7784;DHT22;19359;51.402;6.778;2022-11-20T05:02:08;1.90;1.00
7784;DHT22;19359;51.402;6.778;2022-11-20T05:04:34;1.80;1.00
7784;DHT22;19359;51.402;6.778;2022-11-20T05:07:01;1.80;1.00
7784;DHT22;19359;51.402;6.778;2022-11-20T05:09:28;1.90;1.00
7784;DHT22;19359;51.402;6.778;2022-11-20T05:11:54;1.90;1.00
7784;DHT22;19359;51.402;6.778;2022-11-20T05:14:22;1.90;1.00
7784;DHT22;19359;51.402;6.778;2022-11-20T05:16:49;1.90;1.00
7784;DHT22;19359;51.402;6.778;2022-11-20T05:19:16;2.00;1.00
7784;DHT22;19359;51.402;6.778;2022-11-20T05:21:42;2.10;1.00
7784;DHT22;19359;51.402;6.778;2022-11-20T05:24:09;2.10;1.00
7784;DHT22;19359;51.402;6.778;2022-11-20T05:26:36;2.00;1.00
7784;DHT22;19359;51.402;6.778;2022-11-20T05:29:03;2.10;1.00
7784;DHT22;19359;51.402;6.778;2022-11-20T05:31:31;2.10;1.00
7784;DHT22;19359;51.402;6.778;2022-11-20T05:33:58;2.10;1.00
7784;DHT22;19359;51.402;6.778;2022-11-20T05:36:25;2.00;1.00
7784;DHT22;19359;51.402;6.778;2022-11-20T05:38:52;2.20;1.00
7784;DHT22;19359;51.402;6.778;2022-11-20T05:41:19;2.00;1.00
7784;DHT22;19359;51.402;6.778;2022-11-20T05:43:48;2.00;1.00
7784;DHT22;19359;51.402;6.778;2022-11-20T05:46:16;2.10;1.00
7784;DHT22;19359;51.402;6.778;2022-11-20T05:48:46;2.00;1.00
7784;DHT22;19359;51.402;6.778;2022-11-20T05:51:15;2.00;1.00
7784;DHT22;19359;51.402;6.778;2022-11-20T05:53:43;2.10;1.00
7784;DHT22;19359;51.402;6.778;2022-11-20T05:56:11;2.10;1.00
7784;DHT22;19359;51.402;6.778;2022-11-20T05:58:39;2.00;1.00
7784;DHT22;19359;51.402;6.778;2022-11-20T06:01:07;2.00;1.00
7784;DHT22;19359;51.402;6.778;2022-11-20T06:03:34;2.10;1.00
7784;DHT22;19359;51.402;6.778;2022-11-20T06:06:03;2.10;1.00
7784;DHT22;19359;51.402;6.778;2022-11-20T06:08:31;2.10;1.00
7784;DHT22;19359;51.402;6.778;2022-11-20T06:10:58;2.10;1.00
7784;DHT22;19359;51.402;6.778;2022-11-20T06:13:25;2.10;1.00
7784;DHT22;19359;51.402;6.778;2022-11-20T06:15:53;2.00;1.00
7784;DHT22;19359;51.402;6.778;2022-11-20T06:18:20;2.00;1.00
7784;DHT22;19359;51.402;6.778;2022-11-20T06:20:46;1.90;1.00
7784;DHT22;19359;51.402;6.778;2022-11-20T06:23:14;1.90;1.00
7784;DHT22;19359;51.402;6.778;2022-11-20T06:25:42;1.90;1.00
7784;DHT22;19359;51.402;6.778;2022-11-20T06:28:09;1.90;1.00
7784;DHT22;19359;51.402;6.778;2022-11-20T06:30:36;2.00;1.00
7784;DHT22;19359;51.402;6.778;2022-11-20T06:33:03;2.00;1.00
7784;DHT22;19359;51.402;6.778;2022-11-20T06:35:29;1.90;1.00
7784;DHT22;19359;51.402;6.778;2022-11-20T06:37:56;2.00;1.00
7784;DHT22;19359;51.402;6.778;2022-11-20T06:40:24;2.30;1.00
7784;DHT22;19359;51.402;6.778;2022-11-20T06:42:53;1.90;1.00
7784;DHT22;19359;51.402;6.778;2022-11-20T06:45:20;1.90;1.00
7784;DHT22;19359;51.402;6.778;2022-11-20T06:47:47;1.90;1.00
7784;DHT22;19359;51.402;6.778;2022-11-20T06:50:14;1.90;1.00
7784;DHT22;19359;51.402;6.778;2022-11-20T06:52:40;1.90;1.00
7784;DHT22;19359;51.402;6.778;2022-11-20T06:55:08;1.90;1.00
7784;DHT22;19359;51.402;6.778;2022-11-20T06:57:36;1.80;1.00
7784;DHT22;19359;51.402;6.778;2022-11-20T07:00:03;1.90;1.00
7784;DHT22;19359;51.402;6.778;2022-11-20T07:02:30;1.90;1.00
7784;DHT22;19359;51.402;6.778;2022-11-20T07:07:24;1.50;1.00
7784;DHT22;19359;51.402;6.778;2022-11-20T07:09:51;2.00;1.00
7784;DHT22;19359;51.402;6.778;2022-11-20T07:12:17;1.90;1.00
7784;DHT22;19359;51.402;6.778;2022-11-20T07:14:45;2.00;1.00
7784;DHT22;19359;51.402;6.778;2022-11-20T07:17:12;2.20;1.00
7784;DHT22;19359;51.402;6.778;2022-11-20T07:19:39;2.10;1.00
7784;DHT22;19359;51.402;6.778;2022-11-20T07:22:06;2.10;1.00
7784;DHT22;19359;51.402;6.778;2022-11-20T07:24:32;2.10;1.00
7784;DHT22;19359;51.402;6.778;2022-11-20T07:27:00;2.10;1.00
7784;DHT22;19359;51.402;6.778;2022-11-20T07:29:26;2.20;1.00
7784;DHT22;19359;51.402;6.778;2022-11-20T07:31:54;2.20;1.00
7784;DHT22;19359;51.402;6.778;2022-11-20T07:34:21;2.30;1.00
7784;DHT22;19359;51.402;6.778;2022-11-20T07:36:48;2.30;1.00
7784;DHT22;19359;51.402;6.778;2022-11-20T07:39:15;2.30;1.00
7784;DHT22;19359;51.402;6.778;2022-11-20T07:41:42;2.30;1.00
7784;DHT22;19359;51.402;6.778;2022-11-20T07:44:09;2.30;1.00
7784;DHT22;19359;51.402;6.778;2022-11-20T07:49:04;2.30;1.00
7784;DHT22;19359;51.402;6.778;2022-11-20T07:51:30;2.20;1.00
7784;DHT22;19359;51.402;6.778;2022-11-20T07:53:57;2.30;1.00
7784;DHT22;19359;51.402;6.778;2022-11-20T07:56:24;2.30;1.00
7784;DHT22;19359;51.402;6.778;2022-11-20T07:58:51;2.30;1.00
7784;DHT22;19359;51.402;6.778;2022-11-20T08:01:17;2.30;1.00
7784;DHT22;19359;51.402;6.778;2022-11-20T08:03:44;2.40;1.00
7784;DHT22;19359;51.402;6.778;2022-11-20T08:06:12;2.50;1.00
7784;DHT22;19359;51.402;6.778;2022-11-20T08:08:40;2.50;1.00
7784;DHT22;19359;51.402;6.778;2022-11-20T08:11:06;2.60;1.00
7784;DHT22;19359;51.402;6.778;2022-11-20T08:13:51;2.60;1.00
7784;DHT22;19359;51.402;6.778;2022-11-20T08:16:35;2.60;1.00
7784;DHT22;19359;51.402;6.778;2022-11-20T08:19:02;2.70;1.00
7784;DHT22;19359;51.402;6.778;2022-11-20T08:21:30;2.70;1.00
7784;DHT22;19359;51.402;6.778;2022-11-20T08:23:57;2.70;1.00
7784;DHT22;19359;51.402;6.778;2022-11-20T08:26:24;2.80;1.00
7784;DHT22;19359;51.402;6.778;2022-11-20T08:28:53;2.80;1.00
7784;DHT22;19359;51.402;6.778;2022-11-20T08:31:20;2.80;1.00
7784;DHT22;19359;51.402;6.778;2022-11-20T08:33:47;2.80;1.00
7784;DHT22;19359;51.402;6.778;2022-11-20T08:36:14;3.40;1.00
7784;DHT22;19359;51.402;6.778;2022-11-20T08:38:46;3.10;1.00
7784;DHT22;19359;51.402;6.778;2022-11-20T08:41:12;3.10;1.00
7784;DHT22;19359;51.402;6.778;2022-11-20T08:43:54;3.10;1.00
7784;DHT22;19359;51.402;6.778;2022-11-20T08:46:22;3.20;1.00
7784;DHT22;19359;51.402;6.778;2022-11-20T08:48:49;3.30;1.00
7784;DHT22;19359;51.402;6.778;2022-11-20T08:51:16;3.30;1.00
7784;DHT22;19359;51.402;6.778;2022-11-20T08:53:44;3.40;1.00
7784;DHT22;19359;51.402;6.778;2022-11-20T08:56:11;3.40;1.00
7784;DHT22;19359;51.402;6.778;2022-11-20T08:58:38;3.40;1.00
7784;DHT22;19359;51.402;6.778;2022-11-20T09:01:05;3.40;1.00
7784;DHT22;19359;51.402;6.778;2022-11-20T09:03:32;3.50;1.00
7784;DHT22;19359;51.402;6.778;2022-11-20T09:05:59;3.50;1.00
7784;DHT22;19359;51.402;6.778;2022-11-20T09:08:27;3.40;1.00
7784;DHT22;19359;51.402;6.778;2022-11-20T09:10:56;3.60;1.00
7784;DHT22;19359;51.402;6.778;2022-11-20T09:13:23;3.60;1.00
7784;DHT22;19359;51.402;6.778;2022-11-20T09:15:53;3.50;1.00
7784;DHT22;19359;51.402;6.778;2022-11-20T09:18:20;3.50;1.00
7784;DHT22;19359;51.402;6.778;2022-11-20T09:20:47;3.50;1.00
7784;DHT22;19359;51.402;6.778;2022-11-20T09:23:14;3.50;1.00
7784;DHT22;19359;51.402;6.778;2022-11-20T09:25:41;3.50;1.00
7784;DHT22;19359;51.402;6.778;2022-11-20T09:28:09;3.50;1.00
7784;DHT22;19359;51.402;6.778;2022-11-20T09:30:36;3.50;1.00
7784;DHT22;19359;51.402;6.778;2022-11-20T09:33:04;3.50;1.00
7784;DHT22;19359;51.402;6.778;2022-11-20T09:35:31;3.60;1.00
7784;DHT22;19359;51.402;6.778;2022-11-20T09:37:57;3.70;1.00
7784;DHT22;19359;51.402;6.778;2022-11-20T09:40:26;3.80;1.00
7784;DHT22;19359;51.402;6.778;2022-11-20T09:42:57;3.70;1.00
7784;DHT22;19359;51.402;6.778;2022-11-20T09:45:35;3.60;1.00
7784;DHT22;19359;51.402;6.778;2022-11-20T09:48:24;3.60;1.00
7784;DHT22;19359;51.402;6.778;2022-11-20T09:50:57;3.70;1.00
7784;DHT22;19359;51.402;6.778;2022-11-20T09:53:31;3.70;1.00
7784;DHT22;19359;51.402;6.778;2022-11-20T09:56:00;3.80;1.00
7784;DHT22;19359;51.402;6.778;2022-11-20T09:58:32;3.90;1.00
7784;DHT22;19359;51.402;6.778;2022-11-20T10:01:09;4.00;1.00
7784;DHT22;19359;51.402;6.778;2022-11-20T10:03:42;3.90;1.00
7784;DHT22;19359;51.402;6.778;2022-11-20T10:06:17;4.00;1.00
7784;DHT22;19359;51.402;6.778;2022-11-20T10:08:49;4.10;1.00
7784;DHT22;19359;51.402;6.778;2022-11-20T10:11:28;4.20;1.00
7784;DHT22;19359;51.402;6.778;2022-11-20T10:14:03;4.10;1.00
7784;DHT22;19359;51.402;6.778;2022-11-20T10:16:41;4.30;1.00
7784;DHT22;19359;51.402;6.778;2022-11-20T10:19:21;4.30;1.00
7784;DHT22;19359;51.402;6.778;2022-11-20T10:21:56;4.50;1.00
7784;DHT22;19359;51.402;6.778;2022-11-20T10:24:44;4.40;1.00
7784;DHT22;19359;51.402;6.778;2022-11-20T10:27:26;4.70;1.00
7784;DHT22;19359;51.402;6.778;2022-11-20T10:30:02;4.50;1.00
7784;DHT22;19359;51.402;6.778;2022-11-20T10:32:35;4.50;1.00
7784;DHT22;19359;51.402;6.778;2022-11-20T10:35:07;4.60;1.00
7784;DHT22;19359;51.402;6.778;2022-11-20T10:37:43;4.60;1.00
7784;DHT22;19359;51.402;6.778;2022-11-20T10:40:20;4.70;1.00
7784;DHT22;19359;51.402;6.778;2022-11-20T10:42:52;4.70;1.00
7784;DHT22;19359;51.402;6.778;2022-11-20T10:45:39;4.70;1.00
7784;DHT22;19359;51.402;6.778;2022-11-20T10:48:16;4.70;1.00
7784;DHT22;19359;51.402;6.778;2022-11-20T10:50:55;4.90;1.00
7784;DHT22;19359;51.402;6.778;2022-11-20T10:53:36;4.90;1.00
7784;DHT22;19359;51.402;6.778;2022-11-20T10:56:07;4.90;1.00
7784;DHT22;19359;51.402;6.778;2022-11-20T10:58:47;4.90;1.00
7784;DHT22;19359;51.402;6.778;2022-11-20T11:01:18;5.00;1.00
7784;DHT22;19359;51.402;6.778;2022-11-20T11:03:49;5.10;1.00
7784;DHT22;19359;51.402;6.778;2022-11-20T11:06:22;5.10;1.00
7784;DHT22;19359;51.402;6.778;2022-11-20T11:08:53;5.10;1.00
7784;DHT22;19359;51.402;6.778;2022-11-20T11:11:23;4.90;1.00
7784;DHT22;19359;51.402;6.778;2022-11-20T11:13:51;4.80;1.00
7784;DHT22;19359;51.402;6.778;2022-11-20T11:16:23;4.80;1.00
7784;DHT22;19359;51.402;6.778;2022-11-20T11:18:51;4.70;1.00
7784;DHT22;19359;51.402;6.778;2022-11-20T11:21:24;4.70;1.00
7784;DHT22;19359;51.402;6.778;2022-11-20T11:23:59;4.80;1.00
7784;DHT22;19359;51.402;6.778;2022-11-20T11:26:26;4.80;1.00
7784;DHT22;19359;51.402;6.778;2022-11-20T11:28:55;4.90;1.00
7784;DHT22;19359;51.402;6.778;2022-11-20T11:31:23;4.90;1.00
7784;DHT22;19359;51.402;6.778;2022-11-20T11:33:51;5.00;1.00
7784;DHT22;19359;51.402;6.778;2022-11-20T11:36:21;5.10;1.00
7784;DHT22;19359;51.402;6.778;2022-11-20T11:38:51;5.10;1.00
7784;DHT22;19359;51.402;6.778;2022-11-20T11:41:23;5.10;1.00
7784;DHT22;19359;51.402;6.778;2022-11-20T11:43:52;5.20;1.00
7784;DHT22;19359;51.402;6.778;2022-11-20T11:46:39;5.20;1.00
7784;DHT22;19359;51.402;6.778;2022-11-20T11:49:16;5.20;1.00
7784;DHT22;19359;51.402;6.778;2022-11-20T11:51:55;5.10;1.00
7784;DHT22;19359;51.402;6.778;2022-11-20T11:54:26;5.00;1.00
7784;DHT22;19359;51.402;6.778;2022-11-20T11:56:54;5.00;1.00
7784;DHT22;19359;51.402;6.778;2022-11-20T11:59:27;5.00;1.00
7784;DHT22;19359;51.402;6.778;2022-11-20T12:01:57;5.00;1.00
7784;DHT22;19359;51.402;6.778;2022-11-20T12:04:38;4.90;1.00
7784;DHT22;19359;51.402;6.778;2022-11-20T12:07:11;4.90;1.00
7784;DHT22;19359;51.402;6.778;2022-11-20T12:12:14;5.00;1.00
7784;DHT22;19359;51.402;6.778;2022-11-20T12:14:46;5.10;1.00
7784;DHT22;19359;51.402;6.778;2022-11-20T12:17:15;5.10;1.00
7784;DHT22;19359;51.402;6.778;2022-11-20T12:19:44;5.10;1.00
7784;DHT22;19359;51.402;6.778;2022-11-20T12:22:19;5.30;1.00
7784;DHT22;19359;51.402;6.778;2022-11-20T12:24:55;5.20;1.00
7784;DHT22;19359;51.402;6.778;2022-11-20T12:27:42;5.30;1.00
7784;DHT22;19359;51.402;6.778;2022-11-20T12:30:12;5.20;1.00
7784;DHT22;19359;51.402;6.778;2022-11-20T12:32:58;5.20;1.00
7784;DHT22;19359;51.402;6.778;2022-11-20T12:35:42;5.40;1.00
7784;DHT22;19359;51.402;6.778;2022-11-20T12:38:31;5.20;1.00
7784;DHT22;19359;51.402;6.778;2022-11-20T12:41:10;5.20;1.00
7784;DHT22;19359;51.402;6.778;2022-11-20T12:43:44;5.30;1.00
7784;DHT22;19359;51.402;6.778;2022-11-20T12:46:38;5.20;1.00
7784;DHT22;19359;51.402;6.778;2022-11-20T12:49:22;5.20;1.00
7784;DHT22;19359;51.402;6.778;2022-11-20T12:52:07;5.20;1.00
7784;DHT22;19359;51.402;6.778;2022-11-20T12:54:54;5.20;1.00
7784;DHT22;19359;51.402;6.778;2022-11-20T12:57:32;5.30;1.00
7784;DHT22;19359;51.402;6.778;2022-11-20T13:00:08;5.20;1.00
7784;DHT22;19359;51.402;6.778;2022-11-20T13:02:53;4.90;1.00
7784;DHT22;19359;51.402;6.778;2022-11-20T13:05:30;5.10;1.00
7784;DHT22;19359;51.402;6.778;2022-11-20T13:08:00;5.00;1.00
7784;DHT22;19359;51.402;6.778;2022-11-20T13:10:32;5.00;1.00
7784;DHT22;19359;51.402;6.778;2022-11-20T13:13:04;5.10;1.00
7784;DHT22;19359;51.402;6.778;2022-11-20T13:15:43;5.00;1.00
7784;DHT22;19359;51.402;6.778;2022-11-20T13:18:13;5.10;1.00
7784;DHT22;19359;51.402;6.778;2022-11-20T13:20:44;5.10;1.00
7784;DHT22;19359;51.402;6.778;2022-11-20T13:23:23;5.00;1.00
7784;DHT22;19359;51.402;6.778;2022-11-20T13:25:50;5.00;1.00
7784;DHT22;19359;51.402;6.778;2022-11-20T13:28:27;4.90;1.00
7784;DHT22;19359;51.402;6.778;2022-11-20T13:30:56;5.10;1.00
7784;DHT22;19359;51.402;6.778;2022-11-20T13:33:28;5.10;1.00
7784;DHT22;19359;51.402;6.778;2022-11-20T13:35:57;5.10;1.00
7784;DHT22;19359;51.402;6.778;2022-11-20T13:38:26;5.10;1.00
7784;DHT22;19359;51.402;6.778;2022-11-20T13:40:55;5.20;1.00
7784;DHT22;19359;51.402;6.778;2022-11-20T13:43:28;5.10;1.00
7784;DHT22;19359;51.402;6.778;2022-11-20T13:45:59;5.10;1.00
7784;DHT22;19359;51.402;6.778;2022-11-20T13:48:30;5.20;1.00
7784;DHT22;19359;51.402;6.778;2022-11-20T13:51:11;5.00;1.00
7784;DHT22;19359;51.402;6.778;2022-11-20T13:56:54;5.20;1.00
7784;DHT22;19359;51.402;6.778;2022-11-20T13:59:40;4.90;1.00
7784;DHT22;19359;51.402;6.778;2022-11-20T14:02:11;5.10;1.00
7784;DHT22;19359;51.402;6.778;2022-11-20T14:04:43;5.10;1.00
7784;DHT22;19359;51.402;6.778;2022-11-20T14:07:11;5.10;1.00
7784;DHT22;19359;51.402;6.778;2022-11-20T14:09:49;5.30;1.00
7784;DHT22;19359;51.402;6.778;2022-11-20T14:12:18;5.20;1.00
7784;DHT22;19359;51.402;6.778;2022-11-20T14:14:50;5.40;1.00
7784;DHT22;19359;51.402;6.778;2022-11-20T14:17:19;5.20;1.00
7784;DHT22;19359;51.402;6.778;2022-11-20T14:19:47;5.20;1.00
7784;DHT22;19359;51.402;6.778;2022-11-20T14:22:20;5.10;1.00
7784;DHT22;19359;51.402;6.778;2022-11-20T14:25:00;4.90;1.00
7784;DHT22;19359;51.402;6.778;2022-11-20T14:27:27;4.90;1.00
7784;DHT22;19359;51.402;6.778;2022-11-20T14:29:54;5.00;1.00
7784;DHT22;19359;51.402;6.778;2022-11-20T14:32:26;6.40;1.00
7784;DHT22;19359;51.402;6.778;2022-11-20T14:35:02;5.10;1.00
7784;DHT22;19359;51.402;6.778;2022-11-20T14:37:33;5.10;1.00
7784;DHT22;19359;51.402;6.778;2022-11-20T14:40:02;5.10;1.00
7784;DHT22;19359;51.402;6.778;2022-11-20T14:44:57;5.20;1.00
7784;DHT22;19359;51.402;6.778;2022-11-20T14:47:26;5.00;1.00
7784;DHT22;19359;51.402;6.778;2022-11-20T14:49:55;5.00;1.00
7784;DHT22;19359;51.402;6.778;2022-11-20T14:52:24;5.00;1.00
7784;DHT22;19359;51.402;6.778;2022-11-20T14:54:52;5.00;1.00
7784;DHT22;19359;51.402;6.778;2022-11-20T14:57:23;5.00;1.00
7784;DHT22;19359;51.402;6.778;2022-11-20T14:59:50;5.00;1.00
7784;DHT22;19359;51.402;6.778;2022-11-20T15:02:17;5.00;1.00
7784;DHT22;19359;51.402;6.778;2022-11-20T15:04:47;5.00;1.00
7784;DHT22;19359;51.402;6.778;2022-11-20T15:07:24;5.00;1.00
7784;DHT22;19359;51.402;6.778;2022-11-20T15:10:05;4.90;1.00
7784;DHT22;19359;51.402;6.778;2022-11-20T15:12:35;4.90;1.00
7784;DHT22;19359;51.402;6.778;2022-11-20T15:15:05;5.00;1.00
7784;DHT22;19359;51.402;6.778;2022-11-20T15:17:40;5.10;1.00
7784;DHT22;19359;51.402;6.778;2022-11-20T15:20:13;4.90;1.00
7784;DHT22;19359;51.402;6.778;2022-11-20T15:22:40;4.90;1.00
7784;DHT22;19359;51.402;6.778;2022-11-20T15:25:12;4.90;1.00
7784;DHT22;19359;51.402;6.778;2022-11-20T15:27:40;4.90;1.00
7784;DHT22;19359;51.402;6.778;2022-11-20T15:30:13;4.90;1.00
7784;DHT22;19359;51.402;6.778;2022-11-20T15:32:40;4.90;1.00
7784;DHT22;19359;51.402;6.778;2022-11-20T15:35:08;5.00;1.00
7784;DHT22;19359;51.402;6.778;2022-11-20T15:37:35;5.00;1.00
7784;DHT22;19359;51.402;6.778;2022-11-20T15:40:02;4.70;1.00
7784;DHT22;19359;51.402;6.778;2022-11-20T15:42:28;4.80;88.50
7784;DHT22;19359;51.402;6.778;2022-11-20T15:44:56;4.90;99.90
7784;DHT22;19359;51.402;6.778;2022-11-20T15:47:27;4.80;99.90
7784;DHT22;19359;51.402;6.778;2022-11-20T15:49:54;4.90;99.90
7784;DHT22;19359;51.402;6.778;2022-11-20T15:52:21;4.90;99.90
7784;DHT22;19359;51.402;6.778;2022-11-20T15:54:48;5.00;99.90
7784;DHT22;19359;51.402;6.778;2022-11-20T15:57:14;5.00;99.90
7784;DHT22;19359;51.402;6.778;2022-11-20T15:59:41;4.80;1.00
7784;DHT22;19359;51.402;6.778;2022-11-20T16:02:11;4.80;1.00
7784;DHT22;19359;51.402;6.778;2022-11-20T16:04:38;5.10;1.00
7784;DHT22;19359;51.402;6.778;2022-11-20T16:07:05;5.10;1.00
7784;DHT22;19359;51.402;6.778;2022-11-20T16:09:32;5.00;1.00
7784;DHT22;19359;51.402;6.778;2022-11-20T16:11:59;5.00;1.00
7784;DHT22;19359;51.402;6.778;2022-11-20T16:14:26;5.00;1.00
7784;DHT22;19359;51.402;6.778;2022-11-20T16:17:12;5.00;1.00
7784;DHT22;19359;51.402;6.778;2022-11-20T16:19:39;5.00;1.00
7784;DHT22;19359;51.402;6.778;2022-11-20T16:22:05;4.80;1.00
7784;DHT22;19359;51.402;6.778;2022-11-20T16:24:32;5.00;1.00
7784;DHT22;19359;51.402;6.778;2022-11-20T16:26:59;5.10;1.00
7784;DHT22;19359;51.402;6.778;2022-11-20T16:29:26;5.00;1.00
7784;DHT22;19359;51.402;6.778;2022-11-20T16:31:52;5.00;5.50
7784;DHT22;19359;51.402;6.778;2022-11-20T16:34:20;5.10;1.00
7784;DHT22;19359;51.402;6.778;2022-11-20T16:36:47;5.00;1.00
7784;DHT22;19359;51.402;6.778;2022-11-20T16:39:14;5.00;99.90
7784;DHT22;19359;51.402;6.778;2022-11-20T16:41:41;4.90;83.70
7784;DHT22;19359;51.402;6.778;2022-11-20T16:44:08;5.00;1.00
7784;DHT22;19359;51.402;6.778;2022-11-20T16:46:36;5.00;1.00
7784;DHT22;19359;51.402;6.778;2022-11-20T16:49:05;5.10;1.00